KTUL/TUL METAR and TAF weather

Enter ICAO airport designator
Station Type Date Time Source
KTUL METAR 2019/12/12 16:53 UTC NOAA

KTUL 121653Z 18018G24KT 10SM SCT250 09/M02 A3022 RMK AO2 SLP236 T00891017


Station Type Date Time Source
KTUL Decoded METAR 2019/12/12 16:53 UTC NOAA

TULSA INTERNATIONAL AIRPORT, OK, United States (KTUL) 36-12N 95-53W 207M
Dec 12, 2019 - 11:53 AM EST / 2019.12.12 1653 UTC
Wind: from the S (180 degrees) at 21 MPH (18 KT) gusting to 28 MPH (24 KT):0
Visibility: 10 mile(s):0
Sky conditions: partly cloudy
Temperature: 48.0 F (8.9 C)
Dew Point: 28.9 F (-1.7 C)
Relative Humidity: 47%
Pressure (altimeter): 30.22 in. Hg (1023 hPa)
ob: KTUL 121653Z 18018G24KT 10SM SCT250 09/M02 A3022 RMK AO2 SLP236 T00891017
cycle: 17

Station Type Date Time Source
KTUL TAF 2019/12/12 14:40 UTC NOAA

TAF
AMD KTUL 121338Z 1214/1312 16012KT P6SM OVC250 WS012/14049KT
FM121600 17013G21KT P6SM FEW250
FM122100 17011KT P6SM SCT250
FM130100 17006KT P6SM SCT035 BKN150

Example: see airport list